ADDS METAR Data INFO
IDs: Format: Raw Decoded Include TAF

Data at: 0301 UTC 17 Jan 2018

KSLH 170255Z AUTO 22003KT 10SM CLR M16/M18 A3040 RMK AO2 T11681189
KSLH 170235Z AUTO 22003KT 10SM CLR M17/M19 A3040 RMK AO2 T11731193
KSLH 170215Z AUTO 22004KT 10SM CLR M15/M17 A3040 RMK AO2 T11561175
KSLH 170155Z AUTO 22004KT 10SM CLR M16/M18 A3041 RMK AO2 T11661183
KSLH 170135Z AUTO 22003KT 10SM CLR M16/M18 A3041 RMK AO2 T11651185
KSLH 170115Z AUTO 22003KT 10SM CLR M15/M17 A3041 RMK AO2 T11501172
KSLH 170055Z AUTO 26003KT 10SM CLR M14/M16 A3041 RMK AO2 T11451168
KSLH 170035Z AUTO 28003KT 10SM CLR M13/M16 A3042 RMK AO2 T11391167
KSLH 170015Z AUTO 26003KT 10SM CLR M12/M15 A3041 RMK AO2 T11281156
KSLH 162355Z AUTO 28005KT 10SM CLR M13/M16 A3041 RMK AO2 T11361160
KSLH 162335Z AUTO 26004KT 10SM CLR M13/M16 A3041 RMK AO2 T11381159
KSLH 162315Z AUTO 25003KT 10SM CLR M12/M15 A3041 RMK AO2 T11271153
KSLH 162255Z AUTO 25003KT 10SM CLR M12/M15 A3041 RMK AO2 T11271152
KSLH 162235Z AUTO 00000KT 10SM CLR M11/M15 A3041 RMK AO2 T11161151
KSLH 162215Z AUTO 28003KT 10SM CLR M10/M15 A3041 RMK AO2 T11051149
KSLH 162155Z AUTO 30004KT 10SM CLR M10/M15 A3041 RMK AO2 T11061151
KSLH 162135Z AUTO 29004KT 10SM CLR M10/M15 A3041 RMK AO2 T11021147
KSLH 162115Z AUTO 30005KT 10SM CLR M10/M15 A3041 RMK AO2 T11021148
KSLH 162055Z AUTO 33004KT 10SM CLR M10/M15 A3041 RMK AO2 T11031146
KSLH 162035Z AUTO 33004KT 10SM CLR M10/M15 A3041 RMK AO2 T11031152
KSLH 162015Z AUTO 34006KT 10SM CLR M10/M15 A3040 RMK AO2 T11011154
KSLH 161955Z AUTO 33005KT 10SM CLR M10/M15 A3040 RMK AO2 T11021149
KSLH 161935Z AUTO 32006KT 10SM SCT022 M10/M14 A3040 RMK AO2 T11011146
KSLH 161915Z AUTO 33005KT 10SM BKN022 M10/M15 A3040 RMK AO2 T11071148
KSLH 161855Z AUTO 32005KT 7SM -SN BKN022 M10/M15 A3041 RMK AO2 T11061147
KSLH 161835Z AUTO 31004KT 10SM -SN OVC022 M10/M14 A3041 RMK AO2 T11051146
KSLH 161815Z AUTO 00000KT 10SM BKN020 M10/M15 A3041 RMK AO2 T11021147
KSLH 161755Z AUTO 33006KT 7SM OVC020 M10/M14 A3041 RMK AO2 T11051146
KSLH 161735Z AUTO 35004KT 7SM -SN OVC020 M10/M14 A3042 RMK AO2 T11071146
KSLH 161715Z AUTO 33003KT 5SM -SN OVC020 M11/M14 A3043 RMK AO2 T11081145
KSLH 161655Z AUTO 01003KT 7SM -SN BKN020 M11/M14 A3043 RMK AO2 T11081141
KSLH 161636Z AUTO 35006KT 10SM SCT024 M11/M15 A3044 RMK AO2 T11101146
KSLH 161615Z AUTO 02008KT 7SM OVC024 M10/M13 A3044 RMK AO2 T11061138
KSLH 161555Z AUTO 36008KT 3SM -SN OVC026 M11/M13 A3045 RMK AO2 T11101136
KSLH 161535Z AUTO 36009KT 7SM -SN OVC026 M10/M13 A3045 RMK AO2 T11061134
KSLH 161515Z AUTO 36007KT 7SM -SN OVC026 M10/M13 A3044 RMK AO2 T11061140
KSLH 161455Z AUTO 35005KT 5SM -SN OVC024 M10/M13 A3043 RMK AO2 T11061140
KSLH 161435Z AUTO 01007KT 4SM -SN OVC024 M10/M13 A3043 RMK AO2 T11071139
KSLH 161415Z AUTO 36006KT 10SM OVC022 M11/M14 A3043 RMK AO2 T11101142
KSLH 161355Z AUTO 36004KT 7SM -SN OVC022 M11/M13 A3042 RMK AO2 T11121140
KSLH 161335Z AUTO 01004KT 10SM -SN OVC022 M11/M13 A3041 RMK AO2 T11101137
KSLH 161315Z AUTO 01005KT 7SM -SN OVC022 M11/M13 A3041 RMK AO2 T11101135
KSLH 161255Z AUTO 01006KT 7SM -SN OVC022 M11/M13 A3041 RMK AO2 T11071135
KSLH 161235Z AUTO 01006KT 10SM OVC024 M10/M13 A3041 RMK AO2 T11051135
KSLH 161215Z AUTO 02006KT 10SM -SN OVC024 M10/M13 A3041 RMK AO2 T11051135
KSLH 161155Z AUTO 02005KT 10SM BKN024 M10/M13 A3041 RMK AO2 T11071136
KSLH 161135Z AUTO 03008KT 10SM BKN024 M11/M13 A3041 RMK AO2 T11091138
KSLH 161115Z AUTO 01007KT 10SM OVC022 M10/M13 A3040 RMK AO2 T11061136
KSLH 161055Z AUTO 01007KT 10SM -SN OVC024 M10/M13 A3040 RMK AO2 T11061135
KSLH 161035Z AUTO 02008KT 10SM OVC024 M10/M13 A3039 RMK AO2 T11031132
KSLH 161015Z AUTO 02008KT 10SM OVC024 M10/M12 A3039 RMK AO2 T11021128
KSLH 160955Z AUTO 02010KT 10SM -SN OVC022 M10/M12 A3039 RMK AO2 T11001123
KSLH 160935Z AUTO 02007KT 7SM -SN OVC022 M10/M12 A3038 RMK AO2 T10991119
KSLH 160915Z AUTO 02006KT 3SM -SN OVC022 M10/M11 A3038 RMK AO2 T10981117
KSLH 160855Z AUTO 03008KT 5SM -SN BKN017 OVC023 M10/M11 A3038 RMK AO2 T11001118
KSLH 160835Z AUTO 02006KT 7SM -SN SCT010 OVC019 M10/M12 A3038 RMK AO2 T11001119
KSLH 160815Z AUTO 03008KT 4SM -SN SCT010 BKN015 OVC023 M09/M11 A3038 RMK AO2 T10951113
KSLH 160755Z AUTO 04006KT 4SM -SN SCT014 OVC025 M09/M11 A3037 RMK AO2 T10931112
KSLH 160735Z AUTO 03007KT 5SM -SN SCT016 OVC025 M09/M11 A3037 RMK AO2 T10921110
KSLH 160715Z AUTO 02008KT 5SM -SN SCT016 OVC023 M08/M11 A3036 RMK AO2 T10901110
KSLH 160655Z AUTO 04007KT 10SM -SN SCT016 OVC021 M08/M11 A3036 RMK AO2 T10881108
KSLH 160635Z AUTO 04007KT 7SM -SN OVC021 M08/M11 A3035 RMK AO2 T10881111
KSLH 160615Z AUTO 04010KT 4SM -SN SCT009 SCT012 OVC019 M08/M11 A3035 RMK AO2 T10881110
KSLH 160555Z AUTO 05009KT 4SM -SN BKN010 OVC020 M08/M10 A3036 RMK AO2 T10871107
KSLH 160535Z AUTO 04011G17KT 4SM -SN SCT008 BKN013 OVC020 M08/M10 A3036 RMK AO2 T10871105
KSLH 160515Z AUTO 04009G15KT 2 1/2SM -SN SCT008 OVC015 M08/M10 A3037 RMK AO2 T10851101
KSLH 160455Z AUTO 05013G16KT 2SM -SN BKN008 OVC015 M08/M10 A3036 RMK AO2 T10831100
KSLH 160435Z AUTO 05011G18KT 1 1/4SM -SN BKN010 OVC015 M08/M10 A3037 RMK AO2 T10821098
KSLH 160415Z AUTO 06013G17KT 2 1/2SM -SN SCT009 OVC016 M08/M10 A3037 RMK AO2 T10801102
KSLH 160355Z AUTO 06013KT 2 1/2SM -SN BKN009 OVC017 M07/M10 A3037 RMK AO2 T10801100
KSLH 160335Z AUTO 06015G19KT 1 3/4SM -SN BKN007 OVC015 M07/M09 A3036 RMK AO2 T10801096
KSLH 160315Z AUTO 06014G23KT 1 1/4SM -SN BKN007 OVC014 M07/M09 A3036 RMK AO2 T10801095
KSLH 160255Z AUTO 06013G22KT 1 1/2SM -SN BKN009 OVC015 M07/M09 A3036 RMK AO2 T10801096
KSLH 160235Z AUTO 06016G22KT 1 3/4SM -SN BKN009 OVC015 M07/M10 A3036 RMK AO2 T10791099
KSLH 160215Z AUTO 06017G23KT 2SM -SN BKN013 OVC020 M07/M09 A3036 RMK AO2 T10771096
KSLH 160155Z AUTO 06020G24KT 2SM -SN OVC017 M07/M09 A3035 RMK AO2 T10751095
KSLH 160135Z AUTO 06016G24KT 2 1/2SM -SN BKN017 OVC023 M07/M09 A3035 RMK AO2 T10731095
KSLH 160115Z AUTO 07015G26KT 2 1/2SM -SN BKN017 OVC025 M07/M09 A3035 RMK AO2 VIS 2V4 T10721092
KSLH 160055Z AUTO 07016G25KT 2 1/2SM -SN BKN015 BKN022 OVC027 M07/M09 A3034 RMK AO2 VIS 1 3/4V4 T10701091
KSLH 160035Z AUTO 07017G27KT 1 1/2SM -SN SCT007 OVC014 M07/M08 A3034 RMK AO2 T10701086
KSLH 160015Z AUTO 08017G24KT 1 1/4SM -SN SCT008 OVC016 M07/M08 A3034 RMK AO2 T10691085
KSLH 152355Z AUTO 08017G22KT 1 1/2SM -SN SCT008 OVC014 M06/M08 A3033 RMK AO2 T10671085
KSLH 152335Z AUTO 08009G25KT 1 1/2SM -SN BKN004 OVC014 M06/M08 A3033 RMK AO2 T10661081
KSLH 152315Z AUTO 10012G21KT 1/2SM SN OVC002 M06/M07 A3032 RMK AO2 T10661078
KSLH 152255Z AUTO 08011G28KT 1/4SM +SN OVC002 M06/M07 A3032 RMK AO2 T10651076
KSLH 152235Z AUTO 06007KT 3SM -SN SCT006 BKN019 OVC031 M06/M08 A3032 RMK AO2 T10631087
KSLH 152215Z AUTO 09004KT 7SM -SN SCT014 BKN028 OVC050 M06/M09 A3031 RMK AO2 T10621095
KSLH 152155Z AUTO 11006KT 10SM SCT027 BKN041 OVC050 M06/M10 A3030 RMK AO2 T10611101
KSLH 152135Z AUTO 11010G14KT 10SM OVC050 M06/M10 A3030 RMK AO2 T10581101
KSLH 152115Z AUTO 11007KT 10SM SCT018 SCT023 OVC060 M05/M10 A3030 RMK AO2 T10571102
KSLH 152055Z AUTO 10009G14KT 10SM BKN028 BKN036 OVC050 M05/M10 A3030 RMK AO2 T10551107
KSLH 152035Z AUTO 13009KT 10SM SCT028 SCT035 OVC055 M05/M11 A3029 RMK AO2 T10551115
KSLH 152015Z AUTO 12012KT 10SM SCT032 BKN048 OVC085 M05/M12 A3029 RMK AO2 T10511120
KSLH 151955Z AUTO 12010G18KT 10SM SCT035 SCT048 OVC085 M05/M11 A3028 RMK AO2 T10501116
KSLH 151935Z AUTO 12008KT 10SM SCT031 SCT040 OVC085 M05/M10 A3029 RMK AO2 T10501104
KSLH 151915Z AUTO 12009KT 10SM SCT028 SCT033 OVC085 M05/M10 A3030 RMK AO2 T10551101
KSLH 151855Z AUTO 13010KT 7SM SCT025 BKN032 OVC048 M06/M10 A3030 RMK AO2 T10601101
KSLH 151835Z AUTO 11009KT 10SM SCT025 BKN039 OVC060 M06/M10 A3031 RMK AO2 T10601102
KSLH 151815Z AUTO 11008KT 10SM SCT023 OVC029 M06/M10 A3031 RMK AO2 T10621102
KSLH 151755Z AUTO 11006KT 3SM -SN SCT012 BKN024 OVC031 M06/M10 A3033 RMK AO2 T10651104
KSLH 151735Z AUTO 11008KT 7SM SCT018 BKN023 OVC035 M06/M11 A3033 RMK AO2 T10671111
KSLH 151715Z AUTO 12009KT 10SM SCT024 SCT034 OVC040 M07/M11 A3034 RMK AO2 T10721114
KSLH 151655Z AUTO 13008G14KT 7SM SCT015 BKN032 OVC039 M07/M11 A3035 RMK AO2 T10751114
KSLH 151635Z AUTO 11010G15KT 4SM HZ SCT015 BKN023 OVC029 M07/M11 A3036 RMK AO2 T10761113
KSLH 151615Z AUTO 12008KT 5SM HZ SCT028 BKN036 OVC047 M07/M11 A3036 RMK AO2 T10781115
KSLH 151555Z AUTO 13009G14KT 5SM HZ SCT026 BKN041 OVC050 M08/M11 A3036 RMK AO2 T10811116
KSLH 151535Z AUTO 13007KT 5SM -SN BKN025 OVC041 M08/M11 A3036 RMK AO2 T10841115
KSLH 151515Z AUTO 13008KT 7SM SCT023 BKN029 OVC060 M08/M12 A3036 RMK AO2 T10851120